Back to top

Jackson, WY weather

Jackson Hole Airport (AWOS), Jackson, WY: 1/20/2020 03:56
Visibility10 statute milesclear sky
View 7-Day Forecast
Area Summary
Sky/CloudsSky Clear
Weather [last 24 hours]None [snow began 05:28; snow ended 06:17; snow began 07:40 ended 07:55; snow began 08:00 ended 08:13 ]
Pressure30.46 in.Hg (1032 hPa)
Dew Point-6 °F (-21.1 °C)
Relative Humidity86.3 %
Last 24-Hour Precip.Trace
Reading TimePrecipitation
6-hr ending 1/19@10:56Trace
6-hr ending 1/19@04:56Trace
Temperature-2.9 °F (-19.4 °C)blue thermometer
Wind Chill-18.8 °F (-28.2 °C)
Reading TimeMinimum to Maximum Temperature
6-hr ending 1/19@22:561 °F to 16 °F (-17.2 °C to -8.9 °C)
6-hr ending 1/19@16:5610.9 °F to 34 °F (-11.7 °C to 1.1 °C)
6-hr ending 1/19@10:563 °F to 16 °F (-16.1 °C to -8.9 °C)
6-hr ending 1/19@04:566.1 °F to 18 °F (-14.4 °C to -7.8 °C)
24-hr ending 1/19@23:561 °F to 34 °F (-17.2 °C to 1.1 °C)
Wind9.21 MPH (8 KT) green arrow pointing at 22.5 degrees
Wind FromNorth/Northeast (020 Degrees)
Twilight Begins07:17Sunshine Yesterday
Sunrise07:48N/A
Sunset17:20
Twilight Ends17:52
RemarksFZRANO
METARKJAC 201056Z AUTO 02008KT 10SM CLR M19/M21 A3046 RMK AO2 SLP420 T11941211 FZRANO
Tags: